sensor_id;sensor_type;location;lat;lon;timestamp;pressure;altitude;pressure_sealevel;temperature
34125;BMP280;20110;53.120;5.786;2022-10-16T00:01:14;100779.81;;;19.39
34125;BMP280;20110;53.120;5.786;2022-10-16T00:03:42;100769.78;;;19.29
34125;BMP280;20110;53.120;5.786;2022-10-16T00:06:10;100770.91;;;19.36
34125;BMP280;20110;53.120;5.786;2022-10-16T00:08:37;100787.09;;;19.57
34125;BMP280;20110;53.120;5.786;2022-10-16T00:11:28;100759.09;;;19.41
34125;BMP280;20110;53.120;5.786;2022-10-16T00:14:03;100766.53;;;19.52
34125;BMP280;20110;53.120;5.786;2022-10-16T00:16:29;100778.25;;;19.66
34125;BMP280;20110;53.120;5.786;2022-10-16T00:18:56;100759.94;;;19.65
34125;BMP280;20110;53.120;5.786;2022-10-16T00:21:26;100761.69;;;19.60
34125;BMP280;20110;53.120;5.786;2022-10-16T00:23:56;100767.22;;;19.84
34125;BMP280;20110;53.120;5.786;2022-10-16T00:26:25;100765.22;;;19.84
34125;BMP280;20110;53.120;5.786;2022-10-16T00:28:52;100772.09;;;19.97
34125;BMP280;20110;53.120;5.786;2022-10-16T00:31:21;100746.81;;;19.81
34125;BMP280;20110;53.120;5.786;2022-10-16T00:33:49;100744.19;;;19.92
34125;BMP280;20110;53.120;5.786;2022-10-16T00:36:18;100754.28;;;19.92
34125;BMP280;20110;53.120;5.786;2022-10-16T00:38:44;100742.53;;;19.87
34125;BMP280;20110;53.120;5.786;2022-10-16T00:41:15;100751.63;;;19.82
34125;BMP280;20110;53.120;5.786;2022-10-16T00:46:26;100727.78;;;19.67
34125;BMP280;20110;53.120;5.786;2022-10-16T00:49:13;100740.03;;;19.80
34125;BMP280;20110;53.120;5.786;2022-10-16T00:51:52;100747.78;;;19.85
34125;BMP280;20110;53.120;5.786;2022-10-16T00:54:28;100761.56;;;20.01
34125;BMP280;20110;53.120;5.786;2022-10-16T00:56:55;100751.13;;;20.28
34125;BMP280;20110;53.120;5.786;2022-10-16T00:59:42;100765.19;;;20.27
34125;BMP280;20110;53.120;5.786;2022-10-16T01:02:14;100765.53;;;20.21
34125;BMP280;20110;53.120;5.786;2022-10-16T01:04:49;100756.16;;;20.22
34125;BMP280;20110;53.120;5.786;2022-10-16T01:08:02;100773.56;;;20.31
34125;BMP280;20110;53.120;5.786;2022-10-16T01:11:15;100768.28;;;20.33
34125;BMP280;20110;53.120;5.786;2022-10-16T01:13:48;100754.41;;;20.27
34125;BMP280;20110;53.120;5.786;2022-10-16T01:16:44;100746.22;;;20.36
34125;BMP280;20110;53.120;5.786;2022-10-16T01:21:57;100750.69;;;20.32
34125;BMP280;20110;53.120;5.786;2022-10-16T01:27:18;100771.31;;;20.39
34125;BMP280;20110;53.120;5.786;2022-10-16T01:30:04;100762.41;;;20.36
34125;BMP280;20110;53.120;5.786;2022-10-16T01:32:57;100768.44;;;20.46
34125;BMP280;20110;53.120;5.786;2022-10-16T01:35:35;100761.19;;;20.28
34125;BMP280;20110;53.120;5.786;2022-10-16T01:40:49;100741.75;;;20.29
34125;BMP280;20110;53.120;5.786;2022-10-16T01:43:22;100785.03;;;20.31
34125;BMP280;20110;53.120;5.786;2022-10-16T01:45:51;100787.50;;;20.39
34125;BMP280;20110;53.120;5.786;2022-10-16T01:48:20;100789.28;;;20.34
34125;BMP280;20110;53.120;5.786;2022-10-16T01:51:04;100788.19;;;20.06
34125;BMP280;20110;53.120;5.786;2022-10-16T01:53:32;100778.69;;;19.84
34125;BMP280;20110;53.120;5.786;2022-10-16T01:56:00;100783.63;;;19.76
34125;BMP280;20110;53.120;5.786;2022-10-16T01:58:29;100794.69;;;19.70
34125;BMP280;20110;53.120;5.786;2022-10-16T02:01:02;100779.72;;;19.58
34125;BMP280;20110;53.120;5.786;2022-10-16T02:03:31;100783.69;;;19.57
34125;BMP280;20110;53.120;5.786;2022-10-16T02:05:58;100788.97;;;19.55
34125;BMP280;20110;53.120;5.786;2022-10-16T02:08:28;100800.06;;;19.70
34125;BMP280;20110;53.120;5.786;2022-10-16T02:10:59;100791.91;;;19.59
34125;BMP280;20110;53.120;5.786;2022-10-16T02:13:41;100805.47;;;19.70
34125;BMP280;20110;53.120;5.786;2022-10-16T02:16:13;100804.56;;;19.78
34125;BMP280;20110;53.120;5.786;2022-10-16T02:18:42;100796.03;;;19.81
34125;BMP280;20110;53.120;5.786;2022-10-16T02:21:40;100797.34;;;19.80
34125;BMP280;20110;53.120;5.786;2022-10-16T02:29:32;100802.38;;;19.86
34125;BMP280;20110;53.120;5.786;2022-10-16T02:32:04;100786.63;;;19.92
34125;BMP280;20110;53.120;5.786;2022-10-16T02:34:32;100761.13;;;19.83
34125;BMP280;20110;53.120;5.786;2022-10-16T02:37:01;100794.75;;;20.03
34125;BMP280;20110;53.120;5.786;2022-10-16T02:39:30;100768.28;;;20.00
34125;BMP280;20110;53.120;5.786;2022-10-16T02:41:56;100783.13;;;20.01
34125;BMP280;20110;53.120;5.786;2022-10-16T02:44:22;100777.13;;;19.91
34125;BMP280;20110;53.120;5.786;2022-10-16T02:46:48;100796.34;;;19.97
34125;BMP280;20110;53.120;5.786;2022-10-16T02:49:13;100770.50;;;19.82
34125;BMP280;20110;53.120;5.786;2022-10-16T02:51:39;100773.19;;;19.82
34125;BMP280;20110;53.120;5.786;2022-10-16T02:54:05;100784.84;;;19.75
34125;BMP280;20110;53.120;5.786;2022-10-16T02:56:31;100779.78;;;19.69
34125;BMP280;20110;53.120;5.786;2022-10-16T02:58:57;100771.06;;;19.59
34125;BMP280;20110;53.120;5.786;2022-10-16T03:01:23;100779.97;;;19.62
34125;BMP280;20110;53.120;5.786;2022-10-16T03:03:49;100765.66;;;19.38
34125;BMP280;20110;53.120;5.786;2022-10-16T03:06:16;100779.06;;;19.48
34125;BMP280;20110;53.120;5.786;2022-10-16T03:08:41;100778.81;;;19.44
34125;BMP280;20110;53.120;5.786;2022-10-16T03:11:07;100760.59;;;19.54
34125;BMP280;20110;53.120;5.786;2022-10-16T03:13:33;100775.25;;;19.41
34125;BMP280;20110;53.120;5.786;2022-10-16T03:15:59;100769.59;;;19.37
34125;BMP280;20110;53.120;5.786;2022-10-16T03:18:25;100800.16;;;19.51
34125;BMP280;20110;53.120;5.786;2022-10-16T03:20:51;100789.88;;;19.38
34125;BMP280;20110;53.120;5.786;2022-10-16T03:23:17;100791.25;;;19.49
34125;BMP280;20110;53.120;5.786;2022-10-16T03:25:42;100780.28;;;19.35
34125;BMP280;20110;53.120;5.786;2022-10-16T03:28:08;100781.41;;;19.32
34125;BMP280;20110;53.120;5.786;2022-10-16T03:30:34;100790.16;;;19.33
34125;BMP280;20110;53.120;5.786;2022-10-16T03:33:00;100771.53;;;19.56
34125;BMP280;20110;53.120;5.786;2022-10-16T03:35:26;100818.13;;;19.58
34125;BMP280;20110;53.120;5.786;2022-10-16T03:37:51;100827.28;;;19.65
34125;BMP280;20110;53.120;5.786;2022-10-16T03:40:18;100822.25;;;19.59
34125;BMP280;20110;53.120;5.786;2022-10-16T03:42:44;100807.34;;;19.68
34125;BMP280;20110;53.120;5.786;2022-10-16T03:45:11;100821.59;;;19.80
34125;BMP280;20110;53.120;5.786;2022-10-16T03:47:37;100796.66;;;19.70
34125;BMP280;20110;53.120;5.786;2022-10-16T03:50:04;100820.53;;;19.85
34125;BMP280;20110;53.120;5.786;2022-10-16T03:52:30;100805.13;;;19.55
34125;BMP280;20110;53.120;5.786;2022-10-16T03:54:57;100838.53;;;19.61
34125;BMP280;20110;53.120;5.786;2022-10-16T03:57:24;100839.25;;;19.52
34125;BMP280;20110;53.120;5.786;2022-10-16T03:59:50;100838.06;;;19.44
34125;BMP280;20110;53.120;5.786;2022-10-16T04:02:16;100835.38;;;19.44
34125;BMP280;20110;53.120;5.786;2022-10-16T04:04:42;100816.56;;;19.24
34125;BMP280;20110;53.120;5.786;2022-10-16T04:07:08;100845.63;;;19.57
34125;BMP280;20110;53.120;5.786;2022-10-16T04:09:33;100835.88;;;19.52
34125;BMP280;20110;53.120;5.786;2022-10-16T04:11:59;100837.81;;;19.61
34125;BMP280;20110;53.120;5.786;2022-10-16T04:14:25;100849.84;;;19.69
34125;BMP280;20110;53.120;5.786;2022-10-16T04:16:51;100863.81;;;19.87
34125;BMP280;20110;53.120;5.786;2022-10-16T04:19:16;100820.94;;;19.60
34125;BMP280;20110;53.120;5.786;2022-10-16T04:21:42;100870.47;;;19.55
34125;BMP280;20110;53.120;5.786;2022-10-16T04:24:08;100839.97;;;19.53
34125;BMP280;20110;53.120;5.786;2022-10-16T04:26:34;100815.06;;;19.43
34125;BMP280;20110;53.120;5.786;2022-10-16T04:28:59;100861.63;;;19.34
34125;BMP280;20110;53.120;5.786;2022-10-16T04:31:25;100857.53;;;19.23
34125;BMP280;20110;53.120;5.786;2022-10-16T04:33:51;100854.97;;;19.25
34125;BMP280;20110;53.120;5.786;2022-10-16T04:36:17;100861.09;;;19.16
34125;BMP280;20110;53.120;5.786;2022-10-16T04:38:42;100863.91;;;19.08
34125;BMP280;20110;53.120;5.786;2022-10-16T04:41:08;100843.88;;;18.90
34125;BMP280;20110;53.120;5.786;2022-10-16T04:43:35;100839.03;;;18.88
34125;BMP280;20110;53.120;5.786;2022-10-16T04:46:01;100859.41;;;18.92
34125;BMP280;20110;53.120;5.786;2022-10-16T04:48:27;100869.31;;;18.99
34125;BMP280;20110;53.120;5.786;2022-10-16T04:50:53;100843.69;;;18.98
34125;BMP280;20110;53.120;5.786;2022-10-16T04:53:19;100886.88;;;19.00
34125;BMP280;20110;53.120;5.786;2022-10-16T04:55:45;100877.53;;;19.01
34125;BMP280;20110;53.120;5.786;2022-10-16T04:58:11;100850.94;;;18.95
34125;BMP280;20110;53.120;5.786;2022-10-16T05:00:37;100864.94;;;19.03
34125;BMP280;20110;53.120;5.786;2022-10-16T05:03:03;100861.81;;;19.07
34125;BMP280;20110;53.120;5.786;2022-10-16T05:05:33;100878.63;;;19.26
34125;BMP280;20110;53.120;5.786;2022-10-16T05:07:59;100881.44;;;19.28
34125;BMP280;20110;53.120;5.786;2022-10-16T05:10:24;100887.97;;;19.35
34125;BMP280;20110;53.120;5.786;2022-10-16T05:12:50;100891.19;;;19.43
34125;BMP280;20110;53.120;5.786;2022-10-16T05:15:17;100913.13;;;19.59
34125;BMP280;20110;53.120;5.786;2022-10-16T05:17:44;100894.97;;;19.59
34125;BMP280;20110;53.120;5.786;2022-10-16T05:20:10;100851.97;;;19.30
34125;BMP280;20110;53.120;5.786;2022-10-16T05:22:36;100898.50;;;19.62
34125;BMP280;20110;53.120;5.786;2022-10-16T05:25:02;100915.81;;;19.59
34125;BMP280;20110;53.120;5.786;2022-10-16T05:27:28;100915.56;;;19.55
34125;BMP280;20110;53.120;5.786;2022-10-16T05:29:54;100874.22;;;19.31
34125;BMP280;20110;53.120;5.786;2022-10-16T05:32:20;100923.09;;;19.37
34125;BMP280;20110;53.120;5.786;2022-10-16T05:34:46;100915.88;;;19.30
34125;BMP280;20110;53.120;5.786;2022-10-16T05:37:12;100891.84;;;19.13
34125;BMP280;20110;53.120;5.786;2022-10-16T05:39:41;100907.25;;;19.22
34125;BMP280;20110;53.120;5.786;2022-10-16T05:42:06;100913.91;;;19.21
34125;BMP280;20110;53.120;5.786;2022-10-16T05:44:32;100905.69;;;19.00
34125;BMP280;20110;53.120;5.786;2022-10-16T05:46:58;100929.78;;;19.17
34125;BMP280;20110;53.120;5.786;2022-10-16T05:49:24;100923.28;;;19.10
34125;BMP280;20110;53.120;5.786;2022-10-16T05:51:50;100894.22;;;19.09
34125;BMP280;20110;53.120;5.786;2022-10-16T05:54:16;100939.28;;;19.27
34125;BMP280;20110;53.120;5.786;2022-10-16T05:56:42;100907.41;;;19.24
34125;BMP280;20110;53.120;5.786;2022-10-16T05:59:08;100895.22;;;19.13
34125;BMP280;20110;53.120;5.786;2022-10-16T06:01:34;100911.91;;;19.31
34125;BMP280;20110;53.120;5.786;2022-10-16T06:04:01;100914.63;;;19.21
34125;BMP280;20110;53.120;5.786;2022-10-16T06:06:28;100914.47;;;19.39
34125;BMP280;20110;53.120;5.786;2022-10-16T06:08:56;100928.47;;;19.47
34125;BMP280;20110;53.120;5.786;2022-10-16T06:11:29;100907.66;;;19.38
34125;BMP280;20110;53.120;5.786;2022-10-16T06:13:59;100943.34;;;19.48
34125;BMP280;20110;53.120;5.786;2022-10-16T06:16:27;100944.91;;;19.41
34125;BMP280;20110;53.120;5.786;2022-10-16T06:18:55;100948.03;;;19.47
34125;BMP280;20110;53.120;5.786;2022-10-16T06:21:24;100926.09;;;19.32
34125;BMP280;20110;53.120;5.786;2022-10-16T06:23:51;100947.72;;;19.53
34125;BMP280;20110;53.120;5.786;2022-10-16T06:26:20;100939.34;;;19.58
34125;BMP280;20110;53.120;5.786;2022-10-16T06:28:47;100957.09;;;19.52
34125;BMP280;20110;53.120;5.786;2022-10-16T06:31:14;100970.25;;;19.67
34125;BMP280;20110;53.120;5.786;2022-10-16T06:33:40;100980.31;;;19.76
34125;BMP280;20110;53.120;5.786;2022-10-16T06:36:12;100942.31;;;19.53
34125;BMP280;20110;53.120;5.786;2022-10-16T06:38:38;100989.06;;;19.77
34125;BMP280;20110;53.120;5.786;2022-10-16T06:41:06;100973.22;;;19.71
34125;BMP280;20110;53.120;5.786;2022-10-16T06:43:33;100969.09;;;19.60
34125;BMP280;20110;53.120;5.786;2022-10-16T06:46:05;100969.28;;;19.43
34125;BMP280;20110;53.120;5.786;2022-10-16T06:48:33;100996.63;;;19.49
34125;BMP280;20110;53.120;5.786;2022-10-16T06:51:17;101010.38;;;19.53
34125;BMP280;20110;53.120;5.786;2022-10-16T06:53:46;100986.19;;;19.44
34125;BMP280;20110;53.120;5.786;2022-10-16T06:56:26;101019.72;;;19.52
34125;BMP280;20110;53.120;5.786;2022-10-16T06:58:53;101012.34;;;19.62
34125;BMP280;20110;53.120;5.786;2022-10-16T07:01:22;101031.78;;;19.61
34125;BMP280;20110;53.120;5.786;2022-10-16T07:03:49;101041.44;;;19.64
34125;BMP280;20110;53.120;5.786;2022-10-16T07:06:18;100996.97;;;19.44
34125;BMP280;20110;53.120;5.786;2022-10-16T07:08:46;100978.09;;;19.24
34125;BMP280;20110;53.120;5.786;2022-10-16T07:11:16;101035.50;;;19.46
34125;BMP280;20110;53.120;5.786;2022-10-16T07:13:44;101045.25;;;19.42
34125;BMP280;20110;53.120;5.786;2022-10-16T07:16:19;101049.81;;;19.39
34125;BMP280;20110;53.120;5.786;2022-10-16T07:18:45;101038.59;;;19.43
34125;BMP280;20110;53.120;5.786;2022-10-16T07:21:16;101049.09;;;19.39
34125;BMP280;20110;53.120;5.786;2022-10-16T07:23:42;101062.69;;;19.31
34125;BMP280;20110;53.120;5.786;2022-10-16T07:26:10;101056.34;;;19.36
34125;BMP280;20110;53.120;5.786;2022-10-16T07:28:36;101040.19;;;19.26
34125;BMP280;20110;53.120;5.786;2022-10-16T07:31:04;101056.03;;;19.42
34125;BMP280;20110;53.120;5.786;2022-10-16T07:33:32;101025.31;;;19.35
34125;BMP280;20110;53.120;5.786;2022-10-16T07:35:57;101044.28;;;19.27
34125;BMP280;20110;53.120;5.786;2022-10-16T07:38:24;101082.41;;;19.62
34125;BMP280;20110;53.120;5.786;2022-10-16T07:40:57;101094.56;;;19.73
34125;BMP280;20110;53.120;5.786;2022-10-16T07:43:25;101085.34;;;19.95
34125;BMP280;20110;53.120;5.786;2022-10-16T07:45:52;101081.34;;;20.06
34125;BMP280;20110;53.120;5.786;2022-10-16T07:48:19;101093.28;;;20.03
34125;BMP280;20110;53.120;5.786;2022-10-16T07:50:45;101099.44;;;20.25
34125;BMP280;20110;53.120;5.786;2022-10-16T07:53:12;101068.25;;;20.12
34125;BMP280;20110;53.120;5.786;2022-10-16T07:55:38;101122.88;;;20.22
34125;BMP280;20110;53.120;5.786;2022-10-16T07:58:05;101112.81;;;20.13
34125;BMP280;20110;53.120;5.786;2022-10-16T08:00:31;101118.94;;;20.04
34125;BMP280;20110;53.120;5.786;2022-10-16T08:02:58;101086.81;;;19.67
34125;BMP280;20110;53.120;5.786;2022-10-16T08:05:28;101123.81;;;19.77
34125;BMP280;20110;53.120;5.786;2022-10-16T08:07:55;101132.44;;;19.85
34125;BMP280;20110;53.120;5.786;2022-10-16T08:10:24;101136.28;;;19.82
34125;BMP280;20110;53.120;5.786;2022-10-16T08:12:51;101150.19;;;19.78
34125;BMP280;20110;53.120;5.786;2022-10-16T08:15:17;101147.06;;;19.72
34125;BMP280;20110;53.120;5.786;2022-10-16T08:17:43;101131.88;;;19.57
34125;BMP280;20110;53.120;5.786;2022-10-16T08:20:10;101156.84;;;19.58
34125;BMP280;20110;53.120;5.786;2022-10-16T08:22:36;101165.66;;;19.68
34125;BMP280;20110;53.120;5.786;2022-10-16T08:25:02;101153.59;;;19.59
34125;BMP280;20110;53.120;5.786;2022-10-16T08:27:34;101143.53;;;19.60
34125;BMP280;20110;53.120;5.786;2022-10-16T08:30:00;101199.69;;;19.83
34125;BMP280;20110;53.120;5.786;2022-10-16T08:32:26;101181.81;;;19.78
34125;BMP280;20110;53.120;5.786;2022-10-16T08:34:51;101201.25;;;19.95
34125;BMP280;20110;53.120;5.786;2022-10-16T08:37:17;101202.78;;;20.08
34125;BMP280;20110;53.120;5.786;2022-10-16T08:39:43;101197.38;;;20.18
34125;BMP280;20110;53.120;5.786;2022-10-16T08:48:20;101190.03;;;20.99
34125;BMP280;20110;53.120;5.786;2022-10-16T08:50:49;101198.34;;;21.13
34125;BMP280;20110;53.120;5.786;2022-10-16T08:53:25;101210.50;;;21.23
34125;BMP280;20110;53.120;5.786;2022-10-16T08:55:53;101201.94;;;21.27
34125;BMP280;20110;53.120;5.786;2022-10-16T08:58:23;101232.50;;;21.29
34125;BMP280;20110;53.120;5.786;2022-10-16T09:00:58;101232.56;;;21.20
34125;BMP280;20110;53.120;5.786;2022-10-16T09:06:57;101247.94;;;21.39
34125;BMP280;20110;53.120;5.786;2022-10-16T09:15:32;101266.59;;;22.10
34125;BMP280;20110;53.120;5.786;2022-10-16T09:18:34;101256.00;;;22.70
34125;BMP280;20110;53.120;5.786;2022-10-16T09:21:25;101283.56;;;23.01
34125;BMP280;20110;53.120;5.786;2022-10-16T09:23:57;101283.88;;;23.19
34125;BMP280;20110;53.120;5.786;2022-10-16T09:26:24;101258.03;;;22.81
34125;BMP280;20110;53.120;5.786;2022-10-16T09:28:52;101277.88;;;22.39
34125;BMP280;20110;53.120;5.786;2022-10-16T09:31:23;101264.84;;;22.03
34125;BMP280;20110;53.120;5.786;2022-10-16T09:33:57;101288.25;;;22.54
34125;BMP280;20110;53.120;5.786;2022-10-16T09:36:25;101283.09;;;22.58
34125;BMP280;20110;53.120;5.786;2022-10-16T09:39:06;101312.41;;;22.62
34125;BMP280;20110;53.120;5.786;2022-10-16T09:41:37;101295.91;;;23.04
34125;BMP280;20110;53.120;5.786;2022-10-16T09:44:26;101283.75;;;23.29
34125;BMP280;20110;53.120;5.786;2022-10-16T09:47:17;101309.03;;;23.68
34125;BMP280;20110;53.120;5.786;2022-10-16T09:50:02;101305.09;;;23.97
34125;BMP280;20110;53.120;5.786;2022-10-16T09:52:32;101306.78;;;24.15
34125;BMP280;20110;53.120;5.786;2022-10-16T09:55:15;101304.00;;;24.66
34125;BMP280;20110;53.120;5.786;2022-10-16T09:57:52;101319.56;;;25.34
34125;BMP280;20110;53.120;5.786;2022-10-16T10:00:20;101316.34;;;25.66
34125;BMP280;20110;53.120;5.786;2022-10-16T10:02:46;101330.00;;;25.82
34125;BMP280;20110;53.120;5.786;2022-10-16T10:05:28;101323.56;;;25.76
34125;BMP280;20110;53.120;5.786;2022-10-16T10:08:00;101314.84;;;25.63
34125;BMP280;20110;53.120;5.786;2022-10-16T10:10:36;101327.44;;;25.28
34125;BMP280;20110;53.120;5.786;2022-10-16T10:13:02;101335.19;;;24.78
34125;BMP280;20110;53.120;5.786;2022-10-16T10:15:35;101338.16;;;24.44
34125;BMP280;20110;53.120;5.786;2022-10-16T10:18:01;101346.00;;;24.51
34125;BMP280;20110;53.120;5.786;2022-10-16T10:20:34;101363.81;;;24.54
34125;BMP280;20110;53.120;5.786;2022-10-16T10:23:23;101364.19;;;25.01
34125;BMP280;20110;53.120;5.786;2022-10-16T10:26:14;101384.38;;;25.53
34125;BMP280;20110;53.120;5.786;2022-10-16T10:29:03;101384.56;;;25.57
34125;BMP280;20110;53.120;5.786;2022-10-16T10:38:04;101408.72;;;25.64
34125;BMP280;20110;53.120;5.786;2022-10-16T10:41:57;101405.84;;;25.90
34125;BMP280;20110;53.120;5.786;2022-10-16T10:46:41;101394.25;;;25.60
34125;BMP280;20110;53.120;5.786;2022-10-16T10:50:02;101405.59;;;25.99
34125;BMP280;20110;53.120;5.786;2022-10-16T11:00:47;101419.19;;;25.99
34125;BMP280;20110;53.120;5.786;2022-10-16T11:03:58;101429.63;;;25.89
34125;BMP280;20110;53.120;5.786;2022-10-16T11:06:40;101406.22;;;25.55
34125;BMP280;20110;53.120;5.786;2022-10-16T11:09:40;101421.72;;;25.66
34125;BMP280;20110;53.120;5.786;2022-10-16T11:12:35;101427.44;;;25.86
34125;BMP280;20110;53.120;5.786;2022-10-16T11:15:21;101427.13;;;26.09
34125;BMP280;20110;53.120;5.786;2022-10-16T11:17:55;101426.81;;;26.16
34125;BMP280;20110;53.120;5.786;2022-10-16T11:20:41;101439.88;;;26.04
34125;BMP280;20110;53.120;5.786;2022-10-16T11:26:17;101437.78;;;26.18
34125;BMP280;20110;53.120;5.786;2022-10-16T11:28:54;101462.75;;;26.58
34125;BMP280;20110;53.120;5.786;2022-10-16T11:31:52;101462.06;;;26.89
34125;BMP280;20110;53.120;5.786;2022-10-16T11:37:12;101452.34;;;27.17
34125;BMP280;20110;53.120;5.786;2022-10-16T11:39:41;101459.44;;;27.40
34125;BMP280;20110;53.120;5.786;2022-10-16T11:45:27;101469.31;;;27.16
34125;BMP280;20110;53.120;5.786;2022-10-16T11:48:11;101451.56;;;26.99
34125;BMP280;20110;53.120;5.786;2022-10-16T11:50:53;101463.78;;;26.51
34125;BMP280;20110;53.120;5.786;2022-10-16T11:53:42;101488.94;;;26.65
34125;BMP280;20110;53.120;5.786;2022-10-16T11:56:15;101482.09;;;26.95
34125;BMP280;20110;53.120;5.786;2022-10-16T11:58:57;101469.88;;;26.81
34125;BMP280;20110;53.120;5.786;2022-10-16T12:01:41;101506.78;;;27.15
34125;BMP280;20110;53.120;5.786;2022-10-16T12:04:45;101505.94;;;27.11
34125;BMP280;20110;53.120;5.786;2022-10-16T12:07:27;101498.72;;;27.01
34125;BMP280;20110;53.120;5.786;2022-10-16T12:10:09;101505.47;;;26.69
34125;BMP280;20110;53.120;5.786;2022-10-16T12:15:27;101518.94;;;26.81
34125;BMP280;20110;53.120;5.786;2022-10-16T12:17:53;101505.72;;;26.75
34125;BMP280;20110;53.120;5.786;2022-10-16T12:22:54;101514.38;;;25.97
34125;BMP280;20110;53.120;5.786;2022-10-16T12:25:36;101522.50;;;26.25
34125;BMP280;20110;53.120;5.786;2022-10-16T12:28:17;101525.84;;;26.09
34125;BMP280;20110;53.120;5.786;2022-10-16T12:31:04;101525.50;;;25.74
34125;BMP280;20110;53.120;5.786;2022-10-16T12:33:39;101522.31;;;25.25
34125;BMP280;20110;53.120;5.786;2022-10-16T12:36:30;101533.66;;;24.69
34125;BMP280;20110;53.120;5.786;2022-10-16T12:38:59;101541.53;;;24.40
34125;BMP280;20110;53.120;5.786;2022-10-16T12:41:36;101543.13;;;24.19
34125;BMP280;20110;53.120;5.786;2022-10-16T12:44:24;101520.72;;;23.96
34125;BMP280;20110;53.120;5.786;2022-10-16T12:46:51;101527.69;;;23.99
34125;BMP280;20110;53.120;5.786;2022-10-16T12:49:36;101543.72;;;24.06
34125;BMP280;20110;53.120;5.786;2022-10-16T12:52:03;101555.16;;;24.16
34125;BMP280;20110;53.120;5.786;2022-10-16T12:54:38;101524.88;;;24.08
34125;BMP280;20110;53.120;5.786;2022-10-16T13:06:53;101562.91;;;24.70
34125;BMP280;20110;53.120;5.786;2022-10-16T13:09:40;101572.22;;;24.79
34125;BMP280;20110;53.120;5.786;2022-10-16T13:16:01;101580.94;;;25.28
34125;BMP280;20110;53.120;5.786;2022-10-16T13:18:52;101586.34;;;25.14
34125;BMP280;20110;53.120;5.786;2022-10-16T13:24:34;101580.00;;;25.10
34125;BMP280;20110;53.120;5.786;2022-10-16T13:27:39;101588.31;;;25.00
34125;BMP280;20110;53.120;5.786;2022-10-16T13:30:19;101594.66;;;25.05
34125;BMP280;20110;53.120;5.786;2022-10-16T13:33:13;101580.38;;;25.04
34125;BMP280;20110;53.120;5.786;2022-10-16T13:35:55;101582.28;;;25.02
34125;BMP280;20110;53.120;5.786;2022-10-16T13:38:27;101595.75;;;25.00
34125;BMP280;20110;53.120;5.786;2022-10-16T13:41:02;101604.03;;;25.02
34125;BMP280;20110;53.120;5.786;2022-10-16T13:43:43;101581.63;;;24.90
34125;BMP280;20110;53.120;5.786;2022-10-16T13:46:22;101601.97;;;24.89
34125;BMP280;20110;53.120;5.786;2022-10-16T13:49:05;101616.28;;;24.77
34125;BMP280;20110;53.120;5.786;2022-10-16T13:51:33;101588.03;;;24.46
34125;BMP280;20110;53.120;5.786;2022-10-16T13:53:59;101633.22;;;24.64
34125;BMP280;20110;53.120;5.786;2022-10-16T13:56:31;101616.84;;;24.51
34125;BMP280;20110;53.120;5.786;2022-10-16T13:59:07;101614.03;;;24.37
34125;BMP280;20110;53.120;5.786;2022-10-16T14:01:47;101619.09;;;24.43
34125;BMP280;20110;53.120;5.786;2022-10-16T14:04:14;101608.41;;;24.21
34125;BMP280;20110;53.120;5.786;2022-10-16T14:06:45;101623.09;;;24.18
34125;BMP280;20110;53.120;5.786;2022-10-16T14:09:30;101620.19;;;24.03
34125;BMP280;20110;53.120;5.786;2022-10-16T14:12:00;101629.25;;;23.96
34125;BMP280;20110;53.120;5.786;2022-10-16T14:14:56;101621.47;;;23.78
34125;BMP280;20110;53.120;5.786;2022-10-16T14:17:34;101611.41;;;23.58
34125;BMP280;20110;53.120;5.786;2022-10-16T14:20:04;101640.25;;;23.53
34125;BMP280;20110;53.120;5.786;2022-10-16T14:22:41;101640.25;;;23.41
34125;BMP280;20110;53.120;5.786;2022-10-16T14:27:55;101630.84;;;23.21
34125;BMP280;20110;53.120;5.786;2022-10-16T14:30:22;101655.66;;;23.39
34125;BMP280;20110;53.120;5.786;2022-10-16T14:33:18;101667.31;;;23.30
34125;BMP280;20110;53.120;5.786;2022-10-16T14:35:46;101659.25;;;23.20
34125;BMP280;20110;53.120;5.786;2022-10-16T14:38:20;101674.72;;;23.08
34125;BMP280;20110;53.120;5.786;2022-10-16T14:40:48;101676.13;;;22.88
34125;BMP280;20110;53.120;5.786;2022-10-16T14:43:31;101653.75;;;23.09
34125;BMP280;20110;53.120;5.786;2022-10-16T14:45:57;101661.09;;;23.18
34125;BMP280;20110;53.120;5.786;2022-10-16T14:48:24;101640.19;;;22.97
34125;BMP280;20110;53.120;5.786;2022-10-16T14:50:50;101668.88;;;23.12
34125;BMP280;20110;53.120;5.786;2022-10-16T14:53:16;101651.66;;;23.07
34125;BMP280;20110;53.120;5.786;2022-10-16T14:55:42;101649.97;;;23.02
34125;BMP280;20110;53.120;5.786;2022-10-16T14:58:21;101658.72;;;23.00
34125;BMP280;20110;53.120;5.786;2022-10-16T15:00:48;101673.84;;;23.15
34125;BMP280;20110;53.120;5.786;2022-10-16T15:03:14;101649.28;;;23.01
34125;BMP280;20110;53.120;5.786;2022-10-16T15:05:40;101646.69;;;23.03
34125;BMP280;20110;53.120;5.786;2022-10-16T15:08:06;101646.41;;;22.99
34125;BMP280;20110;53.120;5.786;2022-10-16T15:10:40;101675.25;;;23.16
34125;BMP280;20110;53.120;5.786;2022-10-16T15:13:10;101640.03;;;22.95
34125;BMP280;20110;53.120;5.786;2022-10-16T15:15:41;101673.13;;;23.15
34125;BMP280;20110;53.120;5.786;2022-10-16T15:18:08;101675.31;;;23.07
34125;BMP280;20110;53.120;5.786;2022-10-16T15:20:37;101666.03;;;22.88
34125;BMP280;20110;53.120;5.786;2022-10-16T15:23:11;101649.22;;;22.69
34125;BMP280;20110;53.120;5.786;2022-10-16T15:25:58;101658.16;;;22.71
34125;BMP280;20110;53.120;5.786;2022-10-16T15:28:25;101656.03;;;22.70
34125;BMP280;20110;53.120;5.786;2022-10-16T15:30:56;101675.13;;;22.72
34125;BMP280;20110;53.120;5.786;2022-10-16T15:33:27;101673.41;;;22.67
34125;BMP280;20110;53.120;5.786;2022-10-16T15:35:55;101676.56;;;22.63
34125;BMP280;20110;53.120;5.786;2022-10-16T15:38:22;101680.16;;;22.56
34125;BMP280;20110;53.120;5.786;2022-10-16T15:40:49;101682.47;;;22.50
34125;BMP280;20110;53.120;5.786;2022-10-16T15:43:15;101669.03;;;22.31
34125;BMP280;20110;53.120;5.786;2022-10-16T15:45:41;101674.69;;;22.35
34125;BMP280;20110;53.120;5.786;2022-10-16T15:48:11;101633.94;;;22.02